createdAt,value
2023-04-20T04:03:58.712Z,2.83
2023-04-20T04:08:10.665Z,2.57
2023-04-20T04:12:22.757Z,2.60
2023-04-20T04:16:35.200Z,3.00
2023-04-20T04:20:46.949Z,2.83
2023-04-20T04:24:58.440Z,2.73
2023-04-20T04:29:10.507Z,2.63
2023-04-20T04:33:22.306Z,3.17
2023-04-20T04:37:35.827Z,3.33
2023-04-20T04:41:47.328Z,3.03
2023-04-20T04:46:09.859Z,3.40
2023-04-20T04:50:22.329Z,3.47
2023-04-20T04:54:33.873Z,3.60
2023-04-20T04:58:48.263Z,4.30
2023-04-20T05:02:59.903Z,3.20
2023-04-20T05:07:11.472Z,2.93
2023-04-20T05:11:22.962Z,2.57
2023-04-20T05:15:34.436Z,2.80
2023-04-20T05:19:45.913Z,2.47
2023-04-20T05:23:57.354Z,2.80
2023-04-20T05:28:08.791Z,2.70
2023-04-20T05:32:20.319Z,3.10
2023-04-20T05:36:33.461Z,3.50
2023-04-20T05:40:44.896Z,4.53
2023-04-20T05:44:56.361Z,3.67
2023-04-20T05:49:07.813Z,3.23
2023-04-20T05:53:19.364Z,3.73
2023-04-20T05:57:30.851Z,2.93
2023-04-20T06:01:42.316Z,3.20
2023-04-20T06:05:53.813Z,3.13
2023-04-20T06:10:06.148Z,2.80
2023-04-20T06:14:17.620Z,3.40
2023-04-20T06:18:29.358Z,3.30
2023-04-20T06:22:46.910Z,3.20
2023-04-20T06:26:58.439Z,3.33
2023-04-20T06:31:09.908Z,3.40
2023-04-20T06:35:22.536Z,3.63
2023-04-20T06:39:35.327Z,3.77
2023-04-20T06:43:46.861Z,3.50
2023-04-20T06:47:58.345Z,3.67
2023-04-20T06:52:09.813Z,3.57
2023-04-20T06:56:21.695Z,4.47
2023-04-20T07:00:33.140Z,3.57
2023-04-20T07:04:44.596Z,3.90
2023-04-20T07:08:56.109Z,3.97
2023-04-20T07:13:07.548Z,3.90
2023-04-20T07:17:18.968Z,3.53
2023-04-20T07:21:31.607Z,4.10
2023-04-20T07:25:43.083Z,4.27
2023-04-20T07:29:54.534Z,4.00
2023-04-20T07:34:06.011Z,3.80
2023-04-20T07:38:17.448Z,4.30
2023-04-20T07:42:29.053Z,4.33
2023-04-20T07:46:40.762Z,4.27
2023-04-20T07:50:52.236Z,4.10
2023-04-20T07:55:05.024Z,4.77
2023-04-20T07:59:16.911Z,4.40
2023-04-20T08:03:29.173Z,4.63
2023-04-20T08:07:40.851Z,4.70
2023-04-20T08:11:52.381Z,4.88
2023-04-20T08:16:04.630Z,5.03
2023-04-20T08:20:16.273Z,5.00
2023-04-20T08:24:27.729Z,5.00
2023-04-20T08:28:39.174Z,5.22
2023-04-20T08:32:50.670Z,5.38
2023-04-20T08:37:02.230Z,5.07
2023-04-20T08:41:14.890Z,5.47
2023-04-20T08:45:27.041Z,4.85
2023-04-20T08:49:39.657Z,5.32
2023-04-20T08:53:51.581Z,5.13
2023-04-20T08:58:03.068Z,5.43
2023-04-20T09:02:14.882Z,5.90
2023-04-20T09:06:26.580Z,5.47
2023-04-20T09:10:43.432Z,5.60
2023-04-20T09:14:55.824Z,5.43
2023-04-20T09:19:09.190Z,5.72
2023-04-20T09:23:21.533Z,5.60
2023-04-20T09:27:33.051Z,5.57
2023-04-20T09:31:44.695Z,5.10
2023-04-20T09:36:04.168Z,5.25
2023-04-20T09:40:16.477Z,5.50
2023-04-20T09:44:27.989Z,5.18
2023-04-20T09:48:39.603Z,5.47
2023-04-20T09:52:52.283Z,5.00
2023-04-20T09:57:04.653Z,5.35
2023-04-20T10:01:16.299Z,5.32
2023-04-20T10:05:36.562Z,5.35
2023-04-20T10:09:48.076Z,5.28
2023-04-20T10:14:01.698Z,5.45
2023-04-20T10:18:20.498Z,6.03
2023-04-20T10:22:33.404Z,5.90
2023-04-20T10:26:45.963Z,6.07
2023-04-20T10:30:57.520Z,5.85
2023-04-20T10:35:11.327Z,5.93
2023-04-20T10:39:23.090Z,5.70
2023-04-20T10:43:43.208Z,5.45
2023-04-20T10:47:54.881Z,6.03
2023-04-20T10:52:06.559Z,5.85
2023-04-20T10:56:18.052Z,5.68
2023-04-20T11:00:31.058Z,5.70
2023-04-20T11:04:43.090Z,5.70
2023-04-20T11:08:54.653Z,6.50
2023-04-20T11:13:06.357Z,6.53
2023-04-20T11:17:18.209Z,5.68
2023-04-20T11:21:38.220Z,5.93
2023-04-20T11:25:57.095Z,6.72
2023-04-20T11:30:09.905Z,5.95
2023-04-20T11:34:22.712Z,6.78
2023-04-20T11:38:35.334Z,5.82
2023-04-20T11:42:47.118Z,6.57
2023-04-20T11:46:59.587Z,5.88
2023-04-20T11:51:11.243Z,6.10
2023-04-20T11:55:22.765Z,5.57
2023-04-20T11:59:34.304Z,6.18
2023-04-20T12:03:47.984Z,5.80
2023-04-20T12:07:59.772Z,6.13
2023-04-20T12:12:11.352Z,5.57
2023-04-20T12:16:22.959Z,6.30
2023-04-20T12:20:34.619Z,5.78
2023-04-20T12:24:46.154Z,5.97
2023-04-20T12:28:57.911Z,5.90
2023-04-20T12:33:09.555Z,6.10
2023-04-20T12:37:21.189Z,5.60
2023-04-20T12:41:33.387Z,5.85
2023-04-20T12:45:45.958Z,6.50
2023-04-20T12:49:57.530Z,5.72
2023-04-20T12:54:09.347Z,6.88
2023-04-20T12:58:21.342Z,6.55
2023-04-20T13:02:33.573Z,6.25
2023-04-20T13:06:45.352Z,6.88
2023-04-20T13:10:57.063Z,7.20
2023-04-20T13:15:13.054Z,6.13
2023-04-20T13:19:25.290Z,6.75
2023-04-20T13:23:38.237Z,6.50
2023-04-20T13:27:49.810Z,5.90
2023-04-20T13:32:01.354Z,6.90
2023-04-20T13:36:12.873Z,6.35
2023-04-20T13:40:24.399Z,6.38
2023-04-20T13:44:35.969Z,6.20
2023-04-20T13:48:47.460Z,5.47
2023-04-20T13:52:59.035Z,6.43
2023-04-20T13:57:10.600Z,6.43
2023-04-20T14:01:22.702Z,6.43
2023-04-20T14:05:34.287Z,6.93
2023-04-20T14:09:46.136Z,6.88
2023-04-20T14:13:57.988Z,6.63
2023-04-20T14:18:09.934Z,5.50
2023-04-20T14:22:21.567Z,4.53
2023-04-20T14:26:33.415Z,5.20
2023-04-20T14:30:45.792Z,4.82
2023-04-20T14:34:57.288Z,4.30
2023-04-20T14:39:08.781Z,4.22
2023-04-20T14:43:20.299Z,4.07
2023-04-20T14:47:31.976Z,4.85
2023-04-20T14:51:43.598Z,4.88
2023-04-20T14:55:57.351Z,4.70
2023-04-20T15:00:11.380Z,4.97
2023-04-20T15:04:23.364Z,5.68
2023-04-20T15:08:35.790Z,5.95
2023-04-20T15:12:48.106Z,6.38
2023-04-20T15:16:59.754Z,5.85
2023-04-20T15:21:11.610Z,5.63
2023-04-20T15:25:23.456Z,4.93
2023-04-20T15:29:36.205Z,4.75
2023-04-20T15:33:50.581Z,4.90
2023-04-20T15:38:02.922Z,5.55
2023-04-20T15:42:14.504Z,5.10
2023-04-20T15:46:26.542Z,5.13
2023-04-20T15:50:38.211Z,5.25
2023-04-20T15:54:49.723Z,5.38
2023-04-20T15:59:01.262Z,5.25
2023-04-20T16:03:13.189Z,5.55
2023-04-20T16:07:24.824Z,5.43
2023-04-20T16:11:36.335Z,6.47
2023-04-20T16:15:47.937Z,5.07
2023-04-20T16:19:59.454Z,7.45
2023-04-20T16:24:10.950Z,6.35
2023-04-20T16:28:22.451Z,6.05
2023-04-20T16:32:34.669Z,6.10
2023-04-20T16:36:46.315Z,6.10
2023-04-20T16:40:57.792Z,5.07
2023-04-20T16:45:09.312Z,5.78
2023-04-20T16:49:20.937Z,4.50
2023-04-20T16:53:32.489Z,5.22
2023-04-20T16:57:43.991Z,5.20
2023-04-20T17:01:55.703Z,5.18
2023-04-20T17:06:09.617Z,4.93
2023-04-20T17:10:22.396Z,5.10
2023-04-20T17:14:34.526Z,6.72
2023-04-20T17:18:46.228Z,5.15
2023-04-20T17:22:57.727Z,5.80
2023-04-20T17:27:09.251Z,6.15
2023-04-20T17:31:20.990Z,5.22
2023-04-20T17:35:32.510Z,5.22
2023-04-20T17:39:44.209Z,5.88
2023-04-20T17:43:55.767Z,5.53
2023-04-20T17:48:07.391Z,6.10
2023-04-20T17:52:19.609Z,6.43
2023-04-20T17:56:31.117Z,6.03
2023-04-20T18:00:43.153Z,5.68
2023-04-20T18:04:57.524Z,6.25
2023-04-20T18:09:10.039Z,6.20
2023-04-20T18:13:21.590Z,7.07
2023-04-20T18:17:33.273Z,6.47
2023-04-20T18:21:44.824Z,6.63
2023-04-20T18:25:56.498Z,7.05
2023-04-20T18:30:09.053Z,7.03
2023-04-20T18:34:20.739Z,7.40
2023-04-20T18:38:32.943Z,7.50
2023-04-20T18:42:44.443Z,7.35
2023-04-20T18:46:56.149Z,8.05
2023-04-20T18:51:07.703Z,7.65
2023-04-20T18:55:19.198Z,8.18
2023-04-20T18:59:30.870Z,7.95
2023-04-20T19:03:44.281Z,8.82
2023-04-20T19:07:57.832Z,8.57
2023-04-20T19:12:09.371Z,9.10
2023-04-20T19:16:21.214Z,8.02
2023-04-20T19:20:32.896Z,8.93
2023-04-20T19:24:44.479Z,8.95
2023-04-20T19:28:58.423Z,8.70
2023-04-20T19:33:10.009Z,7.90
2023-04-20T19:37:21.740Z,9.57
2023-04-20T19:41:33.825Z,9.45
2023-04-20T19:45:45.660Z,8.77
2023-04-20T19:49:59.324Z,9.10
2023-04-20T19:54:12.167Z,8.95
2023-04-20T19:58:23.896Z,8.55
2023-04-20T20:02:36.122Z,8.88
2023-04-20T20:06:50.465Z,9.05
2023-04-20T20:11:01.975Z,13.32
2023-04-20T20:15:13.654Z,9.88
2023-04-20T20:19:25.261Z,9.00
2023-04-20T20:23:36.867Z,8.95
2023-04-20T20:27:48.431Z,9.35
2023-04-20T20:31:59.992Z,8.18
2023-04-20T20:36:11.553Z,12.75
2023-04-20T20:40:24.249Z,9.00
2023-04-20T20:44:39.709Z,9.57
2023-04-20T20:48:51.308Z,8.85
2023-04-20T20:53:02.861Z,8.93
2023-04-20T20:57:14.481Z,8.50
2023-04-20T21:01:26.090Z,8.60
2023-04-20T21:05:37.664Z,7.50
2023-04-20T21:09:49.237Z,8.00
2023-04-20T21:14:02.650Z,9.13
2023-04-20T21:18:14.297Z,7.88
2023-04-20T21:22:25.812Z,7.57
2023-04-20T21:26:38.217Z,8.60
